Time;durP1;ratioP1;P1;durP2;ratioP2;P2;SDS_P1;SDS_P2;PMS_P1;PMS_P2;Temp;Humidity;BMP_temperature;BMP_pressure;BME280_temperature;BME280_humidity;BME280_pressure;Samples;Min_cycle;Max_cycle;Signal;HPM_P1;HPM_P2
2022/08/07 00:00:55;;;;;;;2.40;1.20;;;;;;;;;;5008734;28;20186;-68
2022/08/07 00:03:21;;;;;;;1.83;1.07;;;;;;;;;;5027268;28;20230;-69
2022/08/07 00:05:46;;;;;;;0.93;0.83;;;;;;;;;;5026672;28;20235;-69
2022/08/07 00:08:12;;;;;;;1.17;1.10;;;;;;;;;;5028576;28;20185;-69
2022/08/07 00:10:37;;;;;;;1.00;0.90;;;;;;;;;;5027909;28;20209;-69
2022/08/07 00:13:03;;;;;;;1.10;1.00;;;;;;;;;;5027162;28;20201;-69
2022/08/07 00:15:29;;;;;;;1.57;1.23;;;;;;;;;;5009535;28;20179;-69
2022/08/07 00:17:55;;;;;;;1.20;1.10;;;;;;;;;;5028729;28;20197;-69
2022/08/07 00:20:20;;;;;;;1.80;1.10;;;;;;;;;;5029503;28;20188;-70
2022/08/07 00:22:45;;;;;;;2.13;1.20;;;;;;;;;;5016168;28;20186;-69
2022/08/07 00:25:10;;;;;;;0.90;0.90;;;;;;;;;;5030676;28;20188;-69
2022/08/07 00:27:36;;;;;;;1.20;1.10;;;;;;;;;;5026486;28;20185;-68
2022/08/07 00:30:02;;;;;;;1.10;1.00;;;;;;;;;;5030311;28;20214;-70
2022/08/07 00:32:28;;;;;;;4.43;1.23;;;;;;;;;;5014015;28;20181;-69
2022/08/07 00:34:53;;;;;;;1.40;1.27;;;;;;;;;;5010689;28;20240;-69
2022/08/07 00:37:18;;;;;;;1.63;1.00;;;;;;;;;;5017062;28;20176;-69
2022/08/07 00:39:43;;;;;;;1.23;1.00;;;;;;;;;;5029981;28;20200;-69
2022/08/07 00:42:08;;;;;;;1.47;1.20;;;;;;;;;;5029408;28;20182;-69
2022/08/07 00:44:34;;;;;;;1.53;1.40;;;;;;;;;;5023493;28;20186;-69
2022/08/07 00:47:00;;;;;;;1.13;1.03;;;;;;;;;;5013146;28;20176;-69
2022/08/07 00:49:25;;;;;;;1.40;0.93;;;;;;;;;;5021008;28;20221;-70
2022/08/07 00:51:51;;;;;;;1.53;1.20;;;;;;;;;;5013732;28;21195;-69
2022/08/07 00:54:16;;;;;;;0.97;0.97;;;;;;;;;;5045488;28;20227;-68
2022/08/07 00:56:41;;;;;;;3.20;1.20;;;;;;;;;;5050673;28;20233;-69
2022/08/07 00:59:06;;;;;;;1.40;1.23;;;;;;;;;;5054692;28;20176;-69
2022/08/07 01:01:32;;;;;;;3.60;1.00;;;;;;;;;;5051744;28;20195;-69
2022/08/07 01:03:57;;;;;;;1.93;1.23;;;;;;;;;;5047005;28;20198;-68
2022/08/07 01:06:23;;;;;;;1.80;1.20;;;;;;;;;;5032463;28;20229;-69
2022/08/07 01:08:48;;;;;;;2.10;1.10;;;;;;;;;;5055015;28;20197;-69
2022/08/07 01:11:13;;;;;;;1.43;1.10;;;;;;;;;;5054242;28;20302;-69
2022/08/07 01:13:39;;;;;;;1.97;1.20;;;;;;;;;;5051127;28;20210;-69
2022/08/07 01:16:05;;;;;;;2.10;1.20;;;;;;;;;;5052479;28;20172;-69
2022/08/07 01:18:30;;;;;;;3.70;1.13;;;;;;;;;;5033440;28;20247;-69
2022/08/07 01:21:01;;;;;;;1.20;1.10;;;;;;;;;;5030370;28;20262;-68
2022/08/07 01:23:28;;;;;;;1.03;1.00;;;;;;;;;;5031064;28;20218;-68
2022/08/07 01:25:53;;;;;;;2.90;1.30;;;;;;;;;;5031374;28;20187;-68
2022/08/07 01:28:20;;;;;;;1.50;1.33;;;;;;;;;;5050473;28;20229;-69
2022/08/07 01:30:46;;;;;;;0.90;0.90;;;;;;;;;;5049089;28;20218;-68
2022/08/07 01:33:11;;;;;;;2.27;1.20;;;;;;;;;;5042227;28;20163;-69
2022/08/07 01:35:36;;;;;;;1.10;1.00;;;;;;;;;;5035064;28;20186;-69
2022/08/07 01:38:01;;;;;;;1.30;1.17;;;;;;;;;;5036054;28;20170;-69
2022/08/07 01:40:27;;;;;;;1.20;1.10;;;;;;;;;;5034015;28;20198;-68
2022/08/07 01:42:53;;;;;;;2.23;1.00;;;;;;;;;;5044945;28;20187;-69
2022/08/07 01:45:20;;;;;;;2.33;1.10;;;;;;;;;;5032309;28;20184;-69
2022/08/07 01:47:45;;;;;;;2.83;1.33;;;;;;;;;;5032507;28;20185;-69
2022/08/07 01:50:10;;;;;;;1.20;1.10;;;;;;;;;;5048138;28;20198;-69
2022/08/07 01:52:37;;;;;;;1.03;1.00;;;;;;;;;;5047054;28;20273;-68
2022/08/07 01:55:06;;;;;;;1.90;1.00;;;;;;;;;;5031839;28;20190;-70
2022/08/07 01:57:34;;;;;;;1.80;1.13;;;;;;;;;;5046532;28;20192;-69
2022/08/07 02:00:05;;;;;;;1.53;1.40;;;;;;;;;;5033117;28;20193;-69
2022/08/07 02:02:39;;;;;;;1.83;1.03;;;;;;;;;;5033260;28;20269;-68
2022/08/07 02:05:06;;;;;;;2.40;1.10;;;;;;;;;;5054952;28;20202;-69
2022/08/07 02:07:33;;;;;;;13.87;1.30;;;;;;;;;;5043152;28;20195;-69
2022/08/07 02:09:59;;;;;;;1.47;1.10;;;;;;;;;;5031523;28;20611;-69
2022/08/07 02:12:26;;;;;;;1.20;1.10;;;;;;;;;;5040993;28;20185;-69
2022/08/07 02:14:52;;;;;;;1.83;1.10;;;;;;;;;;5048778;28;20215;-70
2022/08/07 02:17:18;;;;;;;1.13;1.03;;;;;;;;;;5025092;28;20195;-71
2022/08/07 02:19:44;;;;;;;1.40;1.10;;;;;;;;;;5029633;28;20304;-70
2022/08/07 02:22:11;;;;;;;1.37;1.27;;;;;;;;;;5037553;28;20194;-69
2022/08/07 02:24:36;;;;;;;1.20;1.10;;;;;;;;;;5029530;28;20724;-69
2022/08/07 02:27:04;;;;;;;1.20;1.10;;;;;;;;;;5042561;28;20270;-70
2022/08/07 02:29:30;;;;;;;1.40;1.30;;;;;;;;;;5030875;28;20202;-68
2022/08/07 02:31:56;;;;;;;3.17;1.40;;;;;;;;;;5050508;28;20214;-68
2022/08/07 02:34:21;;;;;;;1.10;1.00;;;;;;;;;;5046738;28;20228;-68
2022/08/07 02:36:48;;;;;;;1.67;1.20;;;;;;;;;;5046250;28;20185;-69
2022/08/07 02:39:15;;;;;;;1.07;1.03;;;;;;;;;;5047506;28;20205;-69
2022/08/07 02:41:41;;;;;;;1.80;1.20;;;;;;;;;;5037451;28;20185;-69
2022/08/07 02:44:06;;;;;;;1.30;1.20;;;;;;;;;;5031858;28;20198;-69
2022/08/07 02:46:32;;;;;;;1.37;0.93;;;;;;;;;;5052745;28;20223;-68
2022/08/07 02:48:57;;;;;;;2.67;1.20;;;;;;;;;;5047253;28;20185;-69
2022/08/07 02:51:23;;;;;;;1.23;1.10;;;;;;;;;;5035079;28;20177;-69
2022/08/07 02:53:53;;;;;;;2.07;1.33;;;;;;;;;;5052264;28;20220;-69
2022/08/07 02:56:19;;;;;;;1.23;1.20;;;;;;;;;;5032046;28;20232;-69
2022/08/07 02:58:44;;;;;;;1.40;1.30;;;;;;;;;;5044416;28;20188;-68
2022/08/07 03:01:10;;;;;;;2.17;1.40;;;;;;;;;;5046526;28;20200;-68
2022/08/07 03:03:36;;;;;;;1.20;1.10;;;;;;;;;;5052391;28;20194;-69
2022/08/07 03:06:01;;;;;;;1.20;1.10;;;;;;;;;;5050127;28;20179;-70
2022/08/07 03:08:27;;;;;;;1.83;1.20;;;;;;;;;;5041973;28;20193;-69
2022/08/07 03:10:52;;;;;;;1.30;1.20;;;;;;;;;;5046877;28;20217;-68
2022/08/07 03:13:17;;;;;;;1.60;1.50;;;;;;;;;;5029143;28;20231;-69
2022/08/07 03:15:43;;;;;;;1.93;1.20;;;;;;;;;;5033117;28;20187;-69
2022/08/07 03:18:10;;;;;;;1.20;1.07;;;;;;;;;;5043078;28;20339;-69
2022/08/07 03:20:35;;;;;;;1.37;1.17;;;;;;;;;;5033754;28;20199;-69
2022/08/07 03:23:01;;;;;;;2.60;1.50;;;;;;;;;;5051451;28;20177;-69
2022/08/07 03:25:27;;;;;;;1.60;1.20;;;;;;;;;;5053883;28;20178;-68
2022/08/07 03:27:53;;;;;;;1.37;1.20;;;;;;;;;;5042635;28;20212;-68
2022/08/07 03:30:19;;;;;;;1.73;1.37;;;;;;;;;;5046358;28;20239;-69
2022/08/07 03:32:46;;;;;;;1.50;1.20;;;;;;;;;;5049313;28;20176;-68
2022/08/07 03:35:13;;;;;;;1.50;1.40;;;;;;;;;;5049790;28;20173;-69
2022/08/07 03:37:39;;;;;;;2.40;1.63;;;;;;;;;;5057977;28;20182;-68
2022/08/07 03:40:06;;;;;;;2.33;1.30;;;;;;;;;;5028547;28;20175;-68
2022/08/07 03:42:33;;;;;;;2.23;1.40;;;;;;;;;;5046716;28;20178;-69
2022/08/07 03:44:58;;;;;;;2.50;1.33;;;;;;;;;;5052332;28;20182;-69
2022/08/07 03:47:24;;;;;;;1.40;1.30;;;;;;;;;;5039515;28;20211;-69
2022/08/07 03:49:49;;;;;;;1.50;1.40;;;;;;;;;;5031047;28;20206;-69
2022/08/07 03:52:16;;;;;;;2.60;1.40;;;;;;;;;;5042837;28;20180;-69
2022/08/07 03:54:41;;;;;;;2.70;1.43;;;;;;;;;;5014572;28;20182;-69
2022/08/07 03:57:09;;;;;;;2.13;1.37;;;;;;;;;;5010088;28;20276;-69
2022/08/07 03:59:35;;;;;;;1.67;1.40;;;;;;;;;;5021602;28;20265;-70
2022/08/07 04:02:00;;;;;;;1.20;1.20;;;;;;;;;;5008493;28;20287;-69
2022/08/07 04:04:25;;;;;;;2.00;1.27;;;;;;;;;;5020625;28;20188;-69
2022/08/07 04:06:51;;;;;;;2.30;1.30;;;;;;;;;;5025788;28;20182;-68
2022/08/07 04:09:16;;;;;;;1.37;1.13;;;;;;;;;;5027426;28;20189;-70
2022/08/07 04:11:42;;;;;;;2.67;1.30;;;;;;;;;;5008890;28;20178;-69
2022/08/07 04:14:08;;;;;;;1.50;1.20;;;;;;;;;;5006726;28;20163;-69
2022/08/07 04:16:33;;;;;;;1.47;1.37;;;;;;;;;;5012260;28;20312;-69
2022/08/07 04:18:59;;;;;;;4.47;1.70;;;;;;;;;;5031437;28;20225;-69
2022/08/07 04:21:24;;;;;;;1.60;1.50;;;;;;;;;;5028208;28;20305;-68
2022/08/07 04:23:50;;;;;;;6.47;1.90;;;;;;;;;;5032833;28;20179;-69
2022/08/07 04:26:15;;;;;;;1.63;1.53;;;;;;;;;;5015269;28;20182;-68
2022/08/07 04:28:40;;;;;;;1.40;1.30;;;;;;;;;;5027554;28;20207;-68
2022/08/07 04:31:06;;;;;;;1.53;1.30;;;;;;;;;;5032380;28;20287;-69
2022/08/07 04:33:32;;;;;;;1.57;1.23;;;;;;;;;;5012381;28;20182;-68
2022/08/07 04:35:57;;;;;;;6.23;1.50;;;;;;;;;;5018260;28;20248;-68
2022/08/07 04:38:23;;;;;;;9.13;2.53;;;;;;;;;;5033431;28;20264;-68
2022/08/07 04:40:48;;;;;;;1.53;1.43;;;;;;;;;;5018207;28;20189;-68
2022/08/07 04:43:15;;;;;;;2.10;1.60;;;;;;;;;;5031547;28;20175;-69
2022/08/07 04:45:58;;;;;;;1.60;1.50;;;;;;;;;;5029552;28;20210;-69
2022/08/07 04:48:24;;;;;;;3.10;1.50;;;;;;;;;;5029181;28;20265;-69
2022/08/07 04:50:55;;;;;;;1.70;1.50;;;;;;;;;;5012998;28;20217;-69
2022/08/07 04:53:26;;;;;;;2.30;1.53;;;;;;;;;;5013378;28;20209;-68
2022/08/07 04:55:56;;;;;;;5.50;1.90;;;;;;;;;;5031585;28;20181;-69
2022/08/07 04:58:21;;;;;;;1.90;1.53;;;;;;;;;;5046994;28;20177;-68
2022/08/07 05:00:56;;;;;;;1.63;1.50;;;;;;;;;;5052325;28;20191;-68
2022/08/07 05:03:28;;;;;;;1.80;1.67;;;;;;;;;;5033666;28;20450;-68
2022/08/07 05:06:05;;;;;;;2.23;2.03;;;;;;;;;;5052572;28;20223;-68
2022/08/07 05:08:49;;;;;;;1.93;1.80;;;;;;;;;;5049079;28;20269;-69
2022/08/07 05:11:34;;;;;;;1.80;1.70;;;;;;;;;;5028659;28;20223;-69
2022/08/07 05:14:04;;;;;;;1.90;1.80;;;;;;;;;;5046025;28;20185;-69
2022/08/07 05:16:31;;;;;;;2.07;1.90;;;;;;;;;;5026038;28;20178;-70
2022/08/07 05:18:59;;;;;;;1.97;1.87;;;;;;;;;;5036814;28;20247;-69
2022/08/07 05:21:26;;;;;;;2.30;2.10;;;;;;;;;;5049916;28;20190;-69
2022/08/07 05:23:54;;;;;;;2.57;2.07;;;;;;;;;;5037754;28;20186;-69
2022/08/07 05:26:21;;;;;;;2.63;2.43;;;;;;;;;;5031075;28;20173;-70
2022/08/07 05:28:48;;;;;;;2.63;2.43;;;;;;;;;;5047428;28;20229;-70
2022/08/07 05:31:14;;;;;;;4.87;2.57;;;;;;;;;;5045855;28;20212;-69
2022/08/07 05:33:41;;;;;;;3.10;2.70;;;;;;;;;;5032513;28;20256;-69
2022/08/07 05:36:07;;;;;;;2.50;2.30;;;;;;;;;;5050368;28;20238;-69
2022/08/07 05:38:33;;;;;;;2.50;2.30;;;;;;;;;;5028423;28;20436;-70
2022/08/07 05:41:00;;;;;;;2.10;1.90;;;;;;;;;;5050015;28;20178;-69
2022/08/07 05:43:25;;;;;;;2.47;2.27;;;;;;;;;;5050557;28;20272;-69
2022/08/07 05:45:50;;;;;;;2.53;2.33;;;;;;;;;;5050715;28;20265;-69
2022/08/07 05:48:16;;;;;;;3.40;2.57;;;;;;;;;;5052393;28;20224;-69
2022/08/07 05:50:42;;;;;;;2.77;2.50;;;;;;;;;;5051677;28;20219;-69
2022/08/07 05:53:07;;;;;;;2.50;2.30;;;;;;;;;;5043399;28;20225;-69
2022/08/07 05:55:33;;;;;;;3.07;2.77;;;;;;;;;;5050412;28;20185;-69
2022/08/07 05:57:59;;;;;;;3.37;3.07;;;;;;;;;;5051718;28;20236;-68
2022/08/07 06:00:24;;;;;;;3.57;3.27;;;;;;;;;;5033751;28;20178;-69
2022/08/07 06:02:51;;;;;;;4.13;3.67;;;;;;;;;;5052056;28;20220;-68
2022/08/07 06:05:19;;;;;;;6.37;4.03;;;;;;;;;;5052276;28;20176;-70
2022/08/07 06:07:44;;;;;;;5.03;4.37;;;;;;;;;;5032947;28;20277;-75
2022/08/07 06:10:10;;;;;;;5.10;3.90;;;;;;;;;;5030328;28;20210;-75
2022/08/07 06:12:35;;;;;;;4.23;3.93;;;;;;;;;;5026901;28;20202;-74
2022/08/07 06:15:01;;;;;;;5.60;3.73;;;;;;;;;;5053501;28;20440;-75
2022/08/07 06:17:26;;;;;;;4.87;4.33;;;;;;;;;;5036577;28;20177;-76
2022/08/07 06:19:52;;;;;;;4.17;3.87;;;;;;;;;;5046058;28;20205;-75
2022/08/07 06:22:18;;;;;;;4.33;3.93;;;;;;;;;;5041228;28;20190;-75
2022/08/07 06:24:44;;;;;;;5.57;4.20;;;;;;;;;;5038637;28;20189;-69
2022/08/07 06:27:09;;;;;;;4.80;4.40;;;;;;;;;;5052302;28;20175;-68
2022/08/07 06:29:34;;;;;;;4.00;3.60;;;;;;;;;;5032820;28;20206;-68
2022/08/07 06:32:00;;;;;;;5.60;3.93;;;;;;;;;;5051494;28;20170;-69
2022/08/07 06:34:26;;;;;;;6.57;4.10;;;;;;;;;;5031954;28;20209;-69
2022/08/07 06:36:52;;;;;;;5.13;4.20;;;;;;;;;;5034428;28;20175;-69
2022/08/07 06:39:17;;;;;;;4.10;3.80;;;;;;;;;;5031214;28;20232;-69
2022/08/07 06:41:44;;;;;;;5.17;3.67;;;;;;;;;;5033622;28;20265;-69
2022/08/07 06:44:10;;;;;;;3.70;3.40;;;;;;;;;;5051337;28;20310;-69
2022/08/07 06:46:35;;;;;;;4.13;3.83;;;;;;;;;;5050416;28;20262;-68
2022/08/07 06:49:01;;;;;;;4.20;3.57;;;;;;;;;;5049270;28;20183;-68
2022/08/07 06:51:27;;;;;;;6.33;4.70;;;;;;;;;;5030059;28;20208;-70
2022/08/07 06:53:54;;;;;;;4.03;3.73;;;;;;;;;;5030076;28;20217;-68
2022/08/07 06:56:38;;;;;;;3.80;3.50;;;;;;;;;;5059838;28;20169;-70
2022/08/07 06:59:05;;;;;;;5.13;4.63;;;;;;;;;;5060012;28;20168;-69
2022/08/07 07:01:31;;;;;;;4.47;3.83;;;;;;;;;;5049810;28;20183;-69
2022/08/07 07:03:56;;;;;;;5.07;4.57;;;;;;;;;;5031907;28;20185;-69
2022/08/07 07:06:21;;;;;;;4.63;4.23;;;;;;;;;;5050232;28;20177;-69
2022/08/07 07:08:46;;;;;;;4.97;4.27;;;;;;;;;;5051290;28;20181;-69
2022/08/07 07:11:12;;;;;;;4.17;3.87;;;;;;;;;;5032902;28;20292;-69
2022/08/07 07:13:39;;;;;;;5.37;3.50;;;;;;;;;;5031883;28;20184;-69
2022/08/07 07:16:10;;;;;;;6.10;3.60;;;;;;;;;;5048197;28;20243;-69
2022/08/07 07:18:39;;;;;;;3.80;3.50;;;;;;;;;;5039220;28;20241;-70
2022/08/07 07:21:07;;;;;;;4.80;3.80;;;;;;;;;;5032102;28;20272;-69
2022/08/07 07:23:32;;;;;;;4.27;3.27;;;;;;;;;;5047435;28;20211;-69
2022/08/07 07:26:00;;;;;;;3.50;3.20;;;;;;;;;;5054646;28;20240;-69
2022/08/07 07:28:35;;;;;;;4.17;3.47;;;;;;;;;;5047311;28;20188;-69
2022/08/07 07:31:23;;;;;;;3.90;3.60;;;;;;;;;;5054953;28;20210;-70
2022/08/07 07:33:51;;;;;;;3.40;3.10;;;;;;;;;;5036970;28;20188;-69
2022/08/07 07:36:17;;;;;;;3.30;3.00;;;;;;;;;;5024455;28;20185;-69
2022/08/07 07:38:43;;;;;;;2.87;2.67;;;;;;;;;;5053560;28;20181;-70
2022/08/07 07:41:09;;;;;;;2.97;2.77;;;;;;;;;;5032776;28;20324;-69
2022/08/07 07:43:37;;;;;;;3.33;3.03;;;;;;;;;;5054785;28;20174;-68
2022/08/07 07:46:02;;;;;;;3.67;2.80;;;;;;;;;;5058728;28;20265;-69
2022/08/07 07:48:28;;;;;;;4.13;2.60;;;;;;;;;;5060570;28;20304;-69
2022/08/07 07:50:54;;;;;;;2.90;2.70;;;;;;;;;;5056100;28;20210;-69
2022/08/07 07:53:21;;;;;;;3.63;2.70;;;;;;;;;;5030030;28;20304;-69
2022/08/07 07:55:46;;;;;;;3.33;3.10;;;;;;;;;;5056986;28;20209;-69
2022/08/07 07:58:13;;;;;;;2.93;2.73;;;;;;;;;;5058108;28;20168;-69
2022/08/07 08:00:40;;;;;;;4.93;2.97;;;;;;;;;;5053357;28;20257;-69
2022/08/07 08:03:08;;;;;;;2.80;2.60;;;;;;;;;;5036435;28;20179;-69
2022/08/07 08:05:35;;;;;;;2.60;2.40;;;;;;;;;;5052126;28;20213;-69
2022/08/07 08:08:01;;;;;;;3.50;3.20;;;;;;;;;;5040920;28;20179;-69
2022/08/07 08:10:27;;;;;;;2.80;2.60;;;;;;;;;;5037977;28;20302;-69
2022/08/07 08:12:53;;;;;;;3.17;2.73;;;;;;;;;;5035320;28;20175;-69
2022/08/07 08:15:18;;;;;;;2.60;2.40;;;;;;;;;;5051867;28;20168;-69
2022/08/07 08:17:44;;;;;;;2.67;2.40;;;;;;;;;;5040803;28;20179;-69
2022/08/07 08:20:10;;;;;;;3.77;2.93;;;;;;;;;;5050399;28;20183;-69
2022/08/07 08:28:10;;;;;;;5.87;2.50;;;;;;;;;;5051738;28;20180;-69
2022/08/07 08:30:38;;;;;;;2.40;2.20;;;;;;;;;;5053784;28;20252;-70
2022/08/07 08:33:05;;;;;;;2.87;2.60;;;;;;;;;;5043046;28;20191;-70
2022/08/07 08:35:31;;;;;;;2.47;2.20;;;;;;;;;;5053519;28;20207;-69
2022/08/07 08:37:58;;;;;;;4.97;2.27;;;;;;;;;;5054971;28;20191;-71
2022/08/07 08:40:47;;;;;;;4.73;2.43;;;;;;;;;;5031437;28;20199;-69
2022/08/07 08:43:31;;;;;;;2.90;1.80;;;;;;;;;;4989126;28;20288;-69
2022/08/07 08:46:08;;;;;;;2.03;1.83;;;;;;;;;;5037572;28;20193;-69
2022/08/07 08:48:57;;;;;;;2.70;1.80;;;;;;;;;;5050480;28;20226;-70
2022/08/07 08:51:30;;;;;;;1.73;1.63;;;;;;;;;;5020372;28;20218;-70
2022/08/07 08:53:58;;;;;;;2.80;2.03;;;;;;;;;;5035547;28;20243;-70
2022/08/07 08:56:26;;;;;;;1.80;1.70;;;;;;;;;;5059018;28;20183;-70
2022/08/07 08:58:55;;;;;;;2.30;2.10;;;;;;;;;;5035084;28;20203;-71
2022/08/07 09:01:25;;;;;;;1.90;1.80;;;;;;;;;;5053370;28;20170;-70
2022/08/07 09:03:57;;;;;;;2.00;1.90;;;;;;;;;;5052962;28;20178;-69
2022/08/07 09:06:34;;;;;;;2.10;2.00;;;;;;;;;;5042004;28;20174;-69
2022/08/07 09:09:05;;;;;;;1.90;1.80;;;;;;;;;;5047178;28;20172;-70
2022/08/07 09:12:05;;;;;;;1.63;1.53;;;;;;;;;;5050834;28;20194;-69
2022/08/07 09:14:48;;;;;;;2.47;2.10;;;;;;;;;;4950221;28;20179;-70
2022/08/07 09:17:32;;;;;;;1.90;1.80;;;;;;;;;;4950800;28;20186;-70
2022/08/07 09:19:57;;;;;;;3.23;1.93;;;;;;;;;;4955020;28;20209;-70
2022/08/07 09:22:40;;;;;;;1.77;1.53;;;;;;;;;;4953979;28;20229;-69
2022/08/07 09:25:06;;;;;;;1.97;1.70;;;;;;;;;;4971919;28;20183;-70
2022/08/07 09:27:49;;;;;;;1.83;1.73;;;;;;;;;;4955356;28;20258;-70
2022/08/07 09:30:16;;;;;;;1.90;1.80;;;;;;;;;;4952591;28;20271;-69
2022/08/07 09:33:00;;;;;;;1.70;1.60;;;;;;;;;;4951473;28;20196;-70
2022/08/07 09:35:46;;;;;;;3.10;1.60;;;;;;;;;;4954318;28;20188;-69
2022/08/07 09:38:35;;;;;;;1.53;1.43;;;;;;;;;;4961250;28;20172;-69
2022/08/07 09:41:12;;;;;;;2.33;1.90;;;;;;;;;;4955554;28;20185;-70
2022/08/07 09:43:56;;;;;;;6.10;1.60;;;;;;;;;;4958629;28;20191;-69
2022/08/07 09:46:40;;;;;;;1.60;1.50;;;;;;;;;;4959439;28;20187;-69
2022/08/07 09:49:05;;;;;;;4.27;1.70;;;;;;;;;;5012455;28;20203;-70
2022/08/07 09:51:43;;;;;;;3.83;1.50;;;;;;;;;;5028646;28;20205;-69
2022/08/07 09:54:14;;;;;;;2.07;1.60;;;;;;;;;;5034399;28;20222;-70
2022/08/07 09:56:39;;;;;;;2.13;2.00;;;;;;;;;;5037823;28;21281;-70
2022/08/07 09:59:23;;;;;;;1.57;1.47;;;;;;;;;;5050696;28;20185;-70
2022/08/07 10:01:55;;;;;;;1.80;1.70;;;;;;;;;;5035707;28;20234;-70
2022/08/07 10:04:27;;;;;;;2.43;1.93;;;;;;;;;;5050164;28;20184;-70
2022/08/07 10:06:52;;;;;;;1.70;1.60;;;;;;;;;;5047206;28;20188;-69
2022/08/07 10:09:23;;;;;;;2.07;1.97;;;;;;;;;;5028909;28;20181;-70
2022/08/07 10:12:11;;;;;;;2.23;1.73;;;;;;;;;;5034097;28;20169;-70
2022/08/07 10:14:43;;;;;;;1.50;1.40;;;;;;;;;;5033150;28;20177;-70
2022/08/07 10:17:16;;;;;;;1.73;1.55;;;;;;;;;;5051367;28;20178;-70
2022/08/07 10:20:01;;;;;;;2.53;1.80;;;;;;;;;;5032343;28;20228;-70
2022/08/07 10:22:29;;;;;;;7.60;2.00;;;;;;;;;;5041932;28;20193;-70
2022/08/07 10:25:13;;;;;;;1.75;1.40;;;;;;;;;;5058896;28;20220;-70
2022/08/07 10:27:57;;;;;;;3.38;1.70;;;;;;;;;;5032902;28;20178;-69
2022/08/07 10:30:25;;;;;;;2.30;1.23;;;;;;;;;;5038007;28;20235;-69
2022/08/07 10:33:13;;;;;;;1.70;1.60;;;;;;;;;;5052154;28;20170;-70
2022/08/07 10:35:50;;;;;;;1.50;1.40;;;;;;;;;;5060961;28;20176;-70
2022/08/07 10:38:19;;;;;;;1.40;1.30;;;;;;;;;;5042548;28;20173;-71
2022/08/07 10:40:55;;;;;;;2.00;1.57;;;;;;;;;;5043097;28;20182;-70
2022/08/07 10:43:20;;;;;;;1.60;1.50;;;;;;;;;;5029117;28;20194;-70
2022/08/07 10:45:50;;;;;;;1.42;1.30;;;;;;;;;;5035263;28;20182;-70
2022/08/07 10:48:21;;;;;;;1.50;1.23;;;;;;;;;;5054719;28;20478;-71
2022/08/07 10:51:10;;;;;;;2.40;1.55;;;;;;;;;;5050545;28;20221;-70
2022/08/07 10:53:39;;;;;;;2.55;1.40;;;;;;;;;;5052603;28;20218;-69
2022/08/07 10:56:04;;;;;;;4.78;1.60;;;;;;;;;;5045181;28;20182;-70
2022/08/07 10:58:38;;;;;;;1.50;1.40;;;;;;;;;;5033316;28;20170;-70
2022/08/07 11:01:20;;;;;;;2.03;1.38;;;;;;;;;;5033974;28;20297;-70
2022/08/07 11:03:48;;;;;;;1.38;1.27;;;;;;;;;;5032675;28;20185;-70
2022/08/07 11:06:23;;;;;;;2.85;1.40;;;;;;;;;;5049003;28;20183;-69
2022/08/07 11:08:53;;;;;;;2.00;1.33;;;;;;;;;;5041742;28;20169;-70
2022/08/07 11:11:31;;;;;;;1.60;1.50;;;;;;;;;;5051111;28;20294;-70
2022/08/07 11:13:58;;;;;;;2.35;1.30;;;;;;;;;;5046181;28;20481;-71
2022/08/07 11:16:30;;;;;;;1.50;1.40;;;;;;;;;;5049030;28;20208;-69
2022/08/07 11:19:00;;;;;;;1.63;1.52;;;;;;;;;;5048721;28;20254;-71
2022/08/07 11:21:31;;;;;;;1.65;1.30;;;;;;;;;;5054903;28;20202;-69
2022/08/07 11:24:08;;;;;;;2.53;1.58;;;;;;;;;;5032428;28;20185;-70
2022/08/07 11:26:44;;;;;;;1.10;1.10;;;;;;;;;;5033069;28;20186;-70
2022/08/07 11:29:13;;;;;;;3.83;1.75;;;;;;;;;;5051784;28;20185;-70
2022/08/07 11:31:44;;;;;;;2.05;1.38;;;;;;;;;;5052530;28;20344;-69
2022/08/07 11:34:31;;;;;;;1.80;1.65;;;;;;;;;;5050576;28;20185;-70
2022/08/07 11:36:56;;;;;;;2.15;1.20;;;;;;;;;;5038417;28;20261;-70
2022/08/07 11:39:31;;;;;;;1.45;1.35;;;;;;;;;;5050478;28;20254;-69
2022/08/07 11:42:16;;;;;;;2.10;1.73;;;;;;;;;;5052340;28;20210;-70
2022/08/07 11:44:58;;;;;;;1.27;1.23;;;;;;;;;;5036322;28;20794;-70
2022/08/07 11:47:39;;;;;;;2.90;1.60;;;;;;;;;;5045633;28;20174;-70
2022/08/07 11:50:11;;;;;;;1.40;1.30;;;;;;;;;;5049329;28;20290;-69
2022/08/07 11:52:55;;;;;;;1.38;1.27;;;;;;;;;;5048605;28;20261;-70
2022/08/07 11:55:28;;;;;;;1.50;1.40;;;;;;;;;;5011353;28;20269;-70
2022/08/07 11:58:02;;;;;;;1.60;1.40;;;;;;;;;;5014054;28;20210;-71
2022/08/07 12:00:35;;;;;;;1.50;1.40;;;;;;;;;;5001352;28;20202;-70
2022/08/07 12:03:19;;;;;;;1.48;1.38;;;;;;;;;;5027033;28;20187;-70
2022/08/07 12:05:44;;;;;;;1.33;1.23;;;;;;;;;;5028512;28;20260;-70
2022/08/07 12:08:09;;;;;;;1.40;1.30;;;;;;;;;;5022055;28;20274;-71
2022/08/07 12:10:39;;;;;;;1.40;1.30;;;;;;;;;;5018798;28;20464;-70
2022/08/07 12:13:07;;;;;;;1.20;1.10;;;;;;;;;;5009686;28;20427;-71
2022/08/07 12:15:38;;;;;;;1.33;1.05;;;;;;;;;;5017015;28;20183;-70
2022/08/07 12:18:06;;;;;;;1.95;1.13;;;;;;;;;;5029485;28;20202;-70
2022/08/07 12:20:57;;;;;;;1.88;1.13;;;;;;;;;;5008261;28;20172;-71
2022/08/07 12:23:44;;;;;;;1.55;1.45;;;;;;;;;;4975275;28;20182;-70
2022/08/07 12:26:13;;;;;;;3.22;1.13;;;;;;;;;;5028850;28;20249;-71
2022/08/07 12:28:46;;;;;;;1.17;1.15;;;;;;;;;;5027473;28;20312;-71
2022/08/07 12:31:13;;;;;;;1.42;1.33;;;;;;;;;;5028718;28;20244;-71
2022/08/07 12:33:39;;;;;;;1.58;1.33;;;;;;;;;;5006188;28;20213;-70
2022/08/07 12:36:06;;;;;;;1.55;1.38;;;;;;;;;;5024675;28;20187;-70
2022/08/07 12:38:32;;;;;;;1.65;1.55;;;;;;;;;;5013960;28;20175;-70
2022/08/07 12:40:58;;;;;;;1.60;1.50;;;;;;;;;;5013947;28;20206;-70
2022/08/07 12:43:27;;;;;;;2.63;1.40;;;;;;;;;;5002431;28;20270;-71
2022/08/07 12:46:01;;;;;;;1.30;1.20;;;;;;;;;;5026158;28;20175;-71
2022/08/07 12:48:46;;;;;;;1.77;1.00;;;;;;;;;;5017007;28;20178;-70
2022/08/07 12:51:17;;;;;;;1.30;1.27;;;;;;;;;;5027418;28;20209;-71
2022/08/07 12:54:06;;;;;;;0.90;0.90;;;;;;;;;;5014701;28;20294;-70
2022/08/07 12:56:39;;;;;;;2.95;1.77;;;;;;;;;;5036248;28;20205;-71
2022/08/07 12:59:05;;;;;;;2.83;1.13;;;;;;;;;;5015169;28;20267;-71
2022/08/07 13:01:52;;;;;;;2.45;1.20;;;;;;;;;;5023826;28;20175;-71
2022/08/07 13:04:27;;;;;;;2.42;1.20;;;;;;;;;;5036661;28;20183;-71
2022/08/07 13:07:01;;;;;;;1.75;1.20;;;;;;;;;;5011813;28;20206;-71
2022/08/07 13:10:01;;;;;;;1.42;1.23;;;;;;;;;;5030831;28;20216;-71
2022/08/07 13:12:27;;;;;;;1.15;1.10;;;;;;;;;;4935726;29;20268;-71
2022/08/07 13:14:55;;;;;;;2.03;1.20;;;;;;;;;;5014501;28;20210;-70
2022/08/07 13:17:34;;;;;;;1.50;1.27;;;;;;;;;;5014262;28;20182;-71
2022/08/07 13:20:19;;;;;;;2.05;1.33;;;;;;;;;;5015278;28;20182;-71
2022/08/07 13:22:46;;;;;;;1.20;1.17;;;;;;;;;;5031422;28;20183;-71
2022/08/07 13:25:13;;;;;;;1.20;1.10;;;;;;;;;;5010597;28;20175;-70
2022/08/07 13:27:48;;;;;;;1.30;1.20;;;;;;;;;;5023436;28;20171;-71
2022/08/07 13:30:13;;;;;;;1.80;1.02;;;;;;;;;;5032393;28;20206;-70
2022/08/07 13:33:00;;;;;;;2.03;1.20;;;;;;;;;;5042886;28;20184;-70
2022/08/07 13:35:30;;;;;;;2.30;1.30;;;;;;;;;;5025542;28;20179;-70
2022/08/07 13:38:01;;;;;;;1.77;0.95;;;;;;;;;;5035894;28;20175;-70
2022/08/07 13:40:32;;;;;;;1.30;1.20;;;;;;;;;;5037605;28;20179;-70
2022/08/07 13:43:03;;;;;;;2.25;1.30;;;;;;;;;;5031538;28;20247;-70
2022/08/07 13:45:29;;;;;;;1.95;1.08;;;;;;;;;;5008355;28;20179;-70
2022/08/07 13:47:56;;;;;;;1.20;1.10;;;;;;;;;;5007265;28;20203;-70
2022/08/07 13:50:23;;;;;;;1.42;1.25;;;;;;;;;;5012663;28;20268;-70
2022/08/07 13:52:49;;;;;;;1.25;1.17;;;;;;;;;;5041240;28;20308;-70
2022/08/07 13:55:18;;;;;;;1.20;1.10;;;;;;;;;;5037155;28;20442;-70
2022/08/07 13:57:45;;;;;;;1.73;1.30;;;;;;;;;;5048015;28;20178;-70
2022/08/07 14:00:11;;;;;;;1.25;1.15;;;;;;;;;;5031274;28;20178;-70
2022/08/07 14:02:37;;;;;;;2.00;1.40;;;;;;;;;;5031306;28;20190;-76
2022/08/07 14:05:08;;;;;;;3.83;1.67;;;;;;;;;;5054276;28;20180;-76
2022/08/07 14:07:38;;;;;;;1.80;1.20;;;;;;;;;;5047066;28;20190;-76
2022/08/07 14:10:04;;;;;;;1.58;1.20;;;;;;;;;;5031766;28;20202;-70
2022/08/07 14:12:46;;;;;;;2.05;1.20;;;;;;;;;;5051681;28;20244;-71
2022/08/07 14:15:20;;;;;;;1.55;1.45;;;;;;;;;;5049381;28;20167;-70
2022/08/07 14:17:45;;;;;;;2.95;1.50;;;;;;;;;;5028756;28;20185;-70
2022/08/07 14:20:18;;;;;;;2.17;1.23;;;;;;;;;;5049140;28;20241;-71
2022/08/07 14:22:47;;;;;;;1.30;1.20;;;;;;;;;;5046962;28;20212;-70
2022/08/07 14:25:14;;;;;;;1.38;1.27;;;;;;;;;;5029815;28;20217;-70
2022/08/07 14:27:45;;;;;;;1.52;1.17;;;;;;;;;;5037511;28;20185;-70
2022/08/07 14:30:11;;;;;;;1.33;1.23;;;;;;;;;;5035202;28;20237;-71
2022/08/07 14:32:55;;;;;;;1.10;1.02;;;;;;;;;;5050809;28;20182;-70
2022/08/07 14:35:30;;;;;;;1.45;1.20;;;;;;;;;;5047203;28;20257;-71
2022/08/07 14:37:56;;;;;;;1.10;1.10;;;;;;;;;;5029244;28;20269;-71
2022/08/07 14:40:23;;;;;;;1.55;1.20;;;;;;;;;;5029148;28;20265;-71
2022/08/07 14:43:07;;;;;;;1.58;1.20;;;;;;;;;;5026320;28;20185;-71
2022/08/07 14:45:43;;;;;;;2.03;1.23;;;;;;;;;;5041694;28;20196;-71
2022/08/07 14:48:08;;;;;;;2.03;1.17;;;;;;;;;;5047724;28;20243;-71
2022/08/07 14:50:40;;;;;;;1.90;1.10;;;;;;;;;;5029491;28;20202;-71
2022/08/07 14:53:05;;;;;;;1.30;1.20;;;;;;;;;;5045615;28;20270;-71
2022/08/07 14:55:31;;;;;;;2.45;1.20;;;;;;;;;;5032093;28;20323;-71
2022/08/07 14:57:57;;;;;;;1.20;1.10;;;;;;;;;;5050666;28;20177;-70
2022/08/07 15:00:25;;;;;;;1.43;1.33;;;;;;;;;;5027267;28;20411;-71
2022/08/07 15:02:54;;;;;;;1.33;1.20;;;;;;;;;;5045858;28;20185;-70